sensor_id;sensor_type;location;lat;lon;timestamp;P1;durP1;ratioP1;P2;durP2;ratioP2
3543;SDS011;1786;52.870;9.578;2022-10-16T00:00:54;3.77;;;1.30;;
3543;SDS011;1786;52.870;9.578;2022-10-16T00:03:21;9.50;;;1.40;;
3543;SDS011;1786;52.870;9.578;2022-10-16T00:05:58;1.60;;;1.40;;
3543;SDS011;1786;52.870;9.578;2022-10-16T00:08:26;2.87;;;1.80;;
3543;SDS011;1786;52.870;9.578;2022-10-16T00:10:58;2.30;;;1.70;;
3543;SDS011;1786;52.870;9.578;2022-10-16T00:13:26;1.50;;;1.40;;
3543;SDS011;1786;52.870;9.578;2022-10-16T00:15:54;2.87;;;1.20;;
3543;SDS011;1786;52.870;9.578;2022-10-16T00:18:22;1.60;;;1.60;;
3543;SDS011;1786;52.870;9.578;2022-10-16T00:20:49;2.83;;;1.60;;
3543;SDS011;1786;52.870;9.578;2022-10-16T00:23:35;1.60;;;1.50;;
3543;SDS011;1786;52.870;9.578;2022-10-16T00:26:03;5.40;;;1.40;;
3543;SDS011;1786;52.870;9.578;2022-10-16T00:28:31;3.33;;;1.13;;
3543;SDS011;1786;52.870;9.578;2022-10-16T00:30:58;2.40;;;1.80;;
3543;SDS011;1786;52.870;9.578;2022-10-16T00:33:25;2.23;;;1.40;;
3543;SDS011;1786;52.870;9.578;2022-10-16T00:35:52;3.10;;;1.97;;
3543;SDS011;1786;52.870;9.578;2022-10-16T00:38:18;2.57;;;1.80;;
3543;SDS011;1786;52.870;9.578;2022-10-16T00:40:45;1.63;;;1.50;;
3543;SDS011;1786;52.870;9.578;2022-10-16T00:46:07;3.80;;;1.70;;
3543;SDS011;1786;52.870;9.578;2022-10-16T00:48:39;2.70;;;1.70;;
3543;SDS011;1786;52.870;9.578;2022-10-16T00:51:07;1.30;;;1.20;;
3543;SDS011;1786;52.870;9.578;2022-10-16T00:53:34;4.73;;;2.00;;
3543;SDS011;1786;52.870;9.578;2022-10-16T00:56:02;1.77;;;1.53;;
3543;SDS011;1786;52.870;9.578;2022-10-16T00:58:29;5.67;;;1.60;;
3543;SDS011;1786;52.870;9.578;2022-10-16T01:00:56;12.23;;;1.70;;
3543;SDS011;1786;52.870;9.578;2022-10-16T01:03:32;5.07;;;1.70;;
3543;SDS011;1786;52.870;9.578;2022-10-16T01:06:08;5.80;;;1.37;;
3543;SDS011;1786;52.870;9.578;2022-10-16T01:08:58;1.53;;;1.53;;
3543;SDS011;1786;52.870;9.578;2022-10-16T01:11:30;3.80;;;1.50;;
3543;SDS011;1786;52.870;9.578;2022-10-16T01:14:40;1.53;;;1.30;;
3543;SDS011;1786;52.870;9.578;2022-10-16T01:17:15;2.77;;;1.50;;
3543;SDS011;1786;52.870;9.578;2022-10-16T01:19:55;7.87;;;1.83;;
3543;SDS011;1786;52.870;9.578;2022-10-16T01:28:17;3.03;;;1.40;;
3543;SDS011;1786;52.870;9.578;2022-10-16T01:30:48;4.67;;;1.53;;
3543;SDS011;1786;52.870;9.578;2022-10-16T01:33:30;2.53;;;1.43;;
3543;SDS011;1786;52.870;9.578;2022-10-16T01:36:10;3.70;;;1.70;;
3543;SDS011;1786;52.870;9.578;2022-10-16T01:38:41;3.80;;;1.40;;
3543;SDS011;1786;52.870;9.578;2022-10-16T01:41:13;5.90;;;2.13;;
3543;SDS011;1786;52.870;9.578;2022-10-16T01:44:04;1.10;;;1.10;;
3543;SDS011;1786;52.870;9.578;2022-10-16T01:46:35;2.00;;;1.30;;
3543;SDS011;1786;52.870;9.578;2022-10-16T01:49:04;2.97;;;1.73;;
3543;SDS011;1786;52.870;9.578;2022-10-16T01:51:32;2.57;;;1.53;;
3543;SDS011;1786;52.870;9.578;2022-10-16T01:54:01;2.40;;;1.30;;
3543;SDS011;1786;52.870;9.578;2022-10-16T01:56:28;3.37;;;1.40;;
3543;SDS011;1786;52.870;9.578;2022-10-16T01:58:57;1.30;;;1.30;;
3543;SDS011;1786;52.870;9.578;2022-10-16T02:01:28;1.43;;;1.33;;
3543;SDS011;1786;52.870;9.578;2022-10-16T02:03:58;6.13;;;1.97;;
3543;SDS011;1786;52.870;9.578;2022-10-16T02:06:28;3.63;;;1.77;;
3543;SDS011;1786;52.870;9.578;2022-10-16T02:08:56;2.03;;;1.53;;
3543;SDS011;1786;52.870;9.578;2022-10-16T02:11:22;4.30;;;1.73;;
3543;SDS011;1786;52.870;9.578;2022-10-16T02:13:56;2.93;;;1.43;;
3543;SDS011;1786;52.870;9.578;2022-10-16T02:16:34;1.77;;;1.67;;
3543;SDS011;1786;52.870;9.578;2022-10-16T02:19:13;3.07;;;1.47;;
3543;SDS011;1786;52.870;9.578;2022-10-16T02:21:44;3.53;;;1.90;;
3543;SDS011;1786;52.870;9.578;2022-10-16T02:27:14;4.27;;;1.67;;
3543;SDS011;1786;52.870;9.578;2022-10-16T02:29:49;2.70;;;1.83;;
3543;SDS011;1786;52.870;9.578;2022-10-16T02:32:27;2.80;;;1.70;;
3543;SDS011;1786;52.870;9.578;2022-10-16T02:34:57;1.60;;;1.50;;
3543;SDS011;1786;52.870;9.578;2022-10-16T02:37:26;3.07;;;1.70;;
3543;SDS011;1786;52.870;9.578;2022-10-16T02:39:55;2.10;;;1.60;;
3543;SDS011;1786;52.870;9.578;2022-10-16T02:42:33;1.70;;;1.60;;
3543;SDS011;1786;52.870;9.578;2022-10-16T02:45:02;9.30;;;1.93;;
3543;SDS011;1786;52.870;9.578;2022-10-16T02:47:29;5.60;;;1.87;;
3543;SDS011;1786;52.870;9.578;2022-10-16T02:49:56;2.07;;;1.70;;
3543;SDS011;1786;52.870;9.578;2022-10-16T02:52:23;3.13;;;1.80;;
3543;SDS011;1786;52.870;9.578;2022-10-16T02:54:50;6.27;;;1.90;;
3543;SDS011;1786;52.870;9.578;2022-10-16T02:57:17;2.60;;;1.90;;
3543;SDS011;1786;52.870;9.578;2022-10-16T02:59:44;4.93;;;2.10;;
3543;SDS011;1786;52.870;9.578;2022-10-16T03:02:11;3.80;;;2.40;;
3543;SDS011;1786;52.870;9.578;2022-10-16T03:04:38;4.73;;;2.30;;
3543;SDS011;1786;52.870;9.578;2022-10-16T03:07:05;2.23;;;2.10;;
3543;SDS011;1786;52.870;9.578;2022-10-16T03:09:32;3.50;;;2.57;;
3543;SDS011;1786;52.870;9.578;2022-10-16T03:11:59;5.60;;;2.20;;
3543;SDS011;1786;52.870;9.578;2022-10-16T03:14:26;3.07;;;2.63;;
3543;SDS011;1786;52.870;9.578;2022-10-16T03:16:53;3.20;;;2.57;;
3543;SDS011;1786;52.870;9.578;2022-10-16T03:19:20;5.03;;;3.20;;
3543;SDS011;1786;52.870;9.578;2022-10-16T03:21:47;2.97;;;2.67;;
3543;SDS011;1786;52.870;9.578;2022-10-16T03:24:13;4.50;;;3.20;;
3543;SDS011;1786;52.870;9.578;2022-10-16T03:26:40;3.23;;;3.03;;
3543;SDS011;1786;52.870;9.578;2022-10-16T03:29:07;2.70;;;2.50;;
3543;SDS011;1786;52.870;9.578;2022-10-16T03:31:34;8.70;;;3.10;;
3543;SDS011;1786;52.870;9.578;2022-10-16T03:34:00;4.10;;;3.13;;
3543;SDS011;1786;52.870;9.578;2022-10-16T03:36:27;3.63;;;3.00;;
3543;SDS011;1786;52.870;9.578;2022-10-16T03:38:54;8.93;;;3.70;;
3543;SDS011;1786;52.870;9.578;2022-10-16T03:41:20;9.70;;;4.13;;
3543;SDS011;1786;52.870;9.578;2022-10-16T03:43:47;4.30;;;3.17;;
3543;SDS011;1786;52.870;9.578;2022-10-16T03:46:13;26.90;;;3.73;;
3543;SDS011;1786;52.870;9.578;2022-10-16T03:48:40;8.90;;;4.13;;
3543;SDS011;1786;52.870;9.578;2022-10-16T03:51:07;5.33;;;3.47;;
3543;SDS011;1786;52.870;9.578;2022-10-16T03:53:33;5.43;;;3.47;;
3543;SDS011;1786;52.870;9.578;2022-10-16T03:56:00;12.17;;;4.93;;
3543;SDS011;1786;52.870;9.578;2022-10-16T03:58:26;5.10;;;3.40;;
3543;SDS011;1786;52.870;9.578;2022-10-16T04:00:53;4.47;;;3.90;;
3543;SDS011;1786;52.870;9.578;2022-10-16T04:03:20;7.23;;;3.23;;
3543;SDS011;1786;52.870;9.578;2022-10-16T04:05:47;5.63;;;3.53;;
3543;SDS011;1786;52.870;9.578;2022-10-16T04:08:14;4.03;;;3.50;;
3543;SDS011;1786;52.870;9.578;2022-10-16T04:10:44;14.90;;;3.90;;
3543;SDS011;1786;52.870;9.578;2022-10-16T04:13:11;8.90;;;3.90;;
3543;SDS011;1786;52.870;9.578;2022-10-16T04:15:39;8.47;;;4.23;;
3543;SDS011;1786;52.870;9.578;2022-10-16T04:18:05;5.33;;;3.80;;
3543;SDS011;1786;52.870;9.578;2022-10-16T04:20:33;5.30;;;3.90;;
3543;SDS011;1786;52.870;9.578;2022-10-16T04:22:59;6.63;;;4.07;;
3543;SDS011;1786;52.870;9.578;2022-10-16T04:25:26;7.93;;;5.00;;
3543;SDS011;1786;52.870;9.578;2022-10-16T04:27:53;4.63;;;3.53;;
3543;SDS011;1786;52.870;9.578;2022-10-16T04:30:20;9.60;;;4.30;;
3543;SDS011;1786;52.870;9.578;2022-10-16T04:32:48;6.87;;;4.40;;
3543;SDS011;1786;52.870;9.578;2022-10-16T04:35:17;12.87;;;5.70;;
3543;SDS011;1786;52.870;9.578;2022-10-16T04:37:44;6.53;;;4.53;;
3543;SDS011;1786;52.870;9.578;2022-10-16T04:40:11;10.23;;;4.67;;
3543;SDS011;1786;52.870;9.578;2022-10-16T04:42:39;4.40;;;4.00;;
3543;SDS011;1786;52.870;9.578;2022-10-16T04:45:06;11.47;;;4.70;;
3543;SDS011;1786;52.870;9.578;2022-10-16T04:47:38;7.93;;;4.77;;
3543;SDS011;1786;52.870;9.578;2022-10-16T04:50:05;7.93;;;3.90;;
3543;SDS011;1786;52.870;9.578;2022-10-16T04:52:32;5.30;;;4.20;;
3543;SDS011;1786;52.870;9.578;2022-10-16T04:55:00;7.20;;;4.60;;
3543;SDS011;1786;52.870;9.578;2022-10-16T04:57:29;7.30;;;4.27;;
3543;SDS011;1786;52.870;9.578;2022-10-16T04:59:56;5.30;;;4.60;;
3543;SDS011;1786;52.870;9.578;2022-10-16T05:02:23;6.83;;;4.10;;
3543;SDS011;1786;52.870;9.578;2022-10-16T05:04:49;4.53;;;4.10;;
3543;SDS011;1786;52.870;9.578;2022-10-16T05:07:16;14.03;;;4.90;;
3543;SDS011;1786;52.870;9.578;2022-10-16T05:09:43;7.07;;;4.63;;
3543;SDS011;1786;52.870;9.578;2022-10-16T05:12:10;6.67;;;4.20;;
3543;SDS011;1786;52.870;9.578;2022-10-16T05:14:37;11.33;;;5.33;;
3543;SDS011;1786;52.870;9.578;2022-10-16T05:17:03;7.30;;;5.13;;
3543;SDS011;1786;52.870;9.578;2022-10-16T05:19:30;10.70;;;4.70;;
3543;SDS011;1786;52.870;9.578;2022-10-16T05:21:57;4.90;;;4.33;;
3543;SDS011;1786;52.870;9.578;2022-10-16T05:24:23;13.17;;;4.97;;
3543;SDS011;1786;52.870;9.578;2022-10-16T05:26:50;6.90;;;4.70;;
3543;SDS011;1786;52.870;9.578;2022-10-16T05:29:17;5.17;;;4.30;;
3543;SDS011;1786;52.870;9.578;2022-10-16T05:31:44;6.03;;;4.67;;
3543;SDS011;1786;52.870;9.578;2022-10-16T05:34:11;5.90;;;4.60;;
3543;SDS011;1786;52.870;9.578;2022-10-16T05:36:38;11.57;;;6.10;;
3543;SDS011;1786;52.870;9.578;2022-10-16T05:39:05;8.20;;;5.50;;
3543;SDS011;1786;52.870;9.578;2022-10-16T05:41:32;9.00;;;4.90;;
3543;SDS011;1786;52.870;9.578;2022-10-16T05:44:00;7.60;;;5.73;;
3543;SDS011;1786;52.870;9.578;2022-10-16T05:46:29;5.67;;;4.60;;
3543;SDS011;1786;52.870;9.578;2022-10-16T05:48:56;10.40;;;4.53;;
3543;SDS011;1786;52.870;9.578;2022-10-16T05:51:23;13.13;;;4.50;;
3543;SDS011;1786;52.870;9.578;2022-10-16T05:53:49;13.10;;;4.87;;
3543;SDS011;1786;52.870;9.578;2022-10-16T05:56:16;10.63;;;4.90;;
3543;SDS011;1786;52.870;9.578;2022-10-16T05:58:43;7.90;;;4.63;;
3543;SDS011;1786;52.870;9.578;2022-10-16T06:01:11;7.33;;;4.43;;
3543;SDS011;1786;52.870;9.578;2022-10-16T06:03:43;6.50;;;4.63;;
3543;SDS011;1786;52.870;9.578;2022-10-16T06:06:11;5.10;;;4.63;;
3543;SDS011;1786;52.870;9.578;2022-10-16T06:08:40;7.30;;;4.57;;
3543;SDS011;1786;52.870;9.578;2022-10-16T06:11:09;8.50;;;4.93;;
3543;SDS011;1786;52.870;9.578;2022-10-16T06:13:37;11.67;;;4.17;;
3543;SDS011;1786;52.870;9.578;2022-10-16T06:16:05;8.97;;;4.47;;
3543;SDS011;1786;52.870;9.578;2022-10-16T06:18:32;8.43;;;3.90;;
3543;SDS011;1786;52.870;9.578;2022-10-16T06:20:58;7.40;;;3.53;;
3543;SDS011;1786;52.870;9.578;2022-10-16T06:23:28;4.87;;;4.37;;
3543;SDS011;1786;52.870;9.578;2022-10-16T06:26:03;9.70;;;4.70;;
3543;SDS011;1786;52.870;9.578;2022-10-16T06:28:31;10.37;;;5.17;;
3543;SDS011;1786;52.870;9.578;2022-10-16T06:31:01;9.80;;;5.50;;
3543;SDS011;1786;52.870;9.578;2022-10-16T06:33:33;5.13;;;4.10;;
3543;SDS011;1786;52.870;9.578;2022-10-16T06:36:05;14.40;;;4.63;;
3543;SDS011;1786;52.870;9.578;2022-10-16T06:38:37;11.40;;;3.97;;
3543;SDS011;1786;52.870;9.578;2022-10-16T06:41:05;5.00;;;3.47;;
3543;SDS011;1786;52.870;9.578;2022-10-16T06:43:33;24.57;;;3.10;;
3543;SDS011;1786;52.870;9.578;2022-10-16T06:46:02;7.80;;;2.23;;
3543;SDS011;1786;52.870;9.578;2022-10-16T06:48:30;5.90;;;3.07;;
3543;SDS011;1786;52.870;9.578;2022-10-16T06:53:38;6.70;;;3.27;;
3543;SDS011;1786;52.870;9.578;2022-10-16T06:56:27;7.90;;;3.40;;
3543;SDS011;1786;52.870;9.578;2022-10-16T06:58:56;3.70;;;2.83;;
3543;SDS011;1786;52.870;9.578;2022-10-16T07:01:24;9.70;;;3.10;;
3543;SDS011;1786;52.870;9.578;2022-10-16T07:03:52;5.57;;;2.60;;
3543;SDS011;1786;52.870;9.578;2022-10-16T07:06:20;4.47;;;3.27;;
3543;SDS011;1786;52.870;9.578;2022-10-16T07:08:48;4.50;;;3.50;;
3543;SDS011;1786;52.870;9.578;2022-10-16T07:11:17;4.53;;;2.80;;
3543;SDS011;1786;52.870;9.578;2022-10-16T07:13:45;6.33;;;2.87;;
3543;SDS011;1786;52.870;9.578;2022-10-16T07:16:21;6.73;;;3.77;;
3543;SDS011;1786;52.870;9.578;2022-10-16T07:18:49;11.60;;;2.80;;
3543;SDS011;1786;52.870;9.578;2022-10-16T07:21:21;13.23;;;2.70;;
3543;SDS011;1786;52.870;9.578;2022-10-16T07:23:55;3.10;;;2.30;;
3543;SDS011;1786;52.870;9.578;2022-10-16T07:26:24;4.43;;;2.17;;
3543;SDS011;1786;52.870;9.578;2022-10-16T07:28:52;6.23;;;1.83;;
3543;SDS011;1786;52.870;9.578;2022-10-16T07:31:19;7.43;;;2.90;;
3543;SDS011;1786;52.870;9.578;2022-10-16T07:33:47;2.30;;;2.20;;
3543;SDS011;1786;52.870;9.578;2022-10-16T07:36:15;3.50;;;2.10;;
3543;SDS011;1786;52.870;9.578;2022-10-16T07:38:45;6.47;;;2.10;;
3543;SDS011;1786;52.870;9.578;2022-10-16T07:41:13;3.27;;;2.10;;
3543;SDS011;1786;52.870;9.578;2022-10-16T07:43:45;4.73;;;2.03;;
3543;SDS011;1786;52.870;9.578;2022-10-16T07:46:13;2.97;;;1.73;;
3543;SDS011;1786;52.870;9.578;2022-10-16T07:48:40;4.13;;;1.90;;
3543;SDS011;1786;52.870;9.578;2022-10-16T07:51:07;1.93;;;1.67;;
3543;SDS011;1786;52.870;9.578;2022-10-16T07:53:34;5.23;;;1.90;;
3543;SDS011;1786;52.870;9.578;2022-10-16T07:56:03;3.33;;;1.77;;
3543;SDS011;1786;52.870;9.578;2022-10-16T07:58:32;3.17;;;1.70;;
3543;SDS011;1786;52.870;9.578;2022-10-16T08:01:02;4.30;;;1.60;;
3543;SDS011;1786;52.870;9.578;2022-10-16T08:03:31;2.40;;;1.60;;
3543;SDS011;1786;52.870;9.578;2022-10-16T08:05:59;1.40;;;1.30;;
3543;SDS011;1786;52.870;9.578;2022-10-16T08:08:26;5.27;;;1.60;;
3543;SDS011;1786;52.870;9.578;2022-10-16T08:10:53;3.07;;;1.73;;
3543;SDS011;1786;52.870;9.578;2022-10-16T08:13:20;1.40;;;1.30;;
3543;SDS011;1786;52.870;9.578;2022-10-16T08:15:47;2.30;;;1.30;;
3543;SDS011;1786;52.870;9.578;2022-10-16T08:18:14;1.13;;;1.13;;
3543;SDS011;1786;52.870;9.578;2022-10-16T08:20:42;1.57;;;1.10;;
3543;SDS011;1786;52.870;9.578;2022-10-16T08:23:13;3.10;;;1.20;;
3543;SDS011;1786;52.870;9.578;2022-10-16T08:25:40;2.38;;;1.13;;
3543;SDS011;1786;52.870;9.578;2022-10-16T08:28:08;1.20;;;1.10;;
3543;SDS011;1786;52.870;9.578;2022-10-16T08:30:36;3.55;;;1.10;;
3543;SDS011;1786;52.870;9.578;2022-10-16T08:33:03;3.13;;;1.10;;
3543;SDS011;1786;52.870;9.578;2022-10-16T08:35:30;5.90;;;1.40;;
3543;SDS011;1786;52.870;9.578;2022-10-16T08:37:57;4.13;;;1.50;;
3543;SDS011;1786;52.870;9.578;2022-10-16T08:40:33;1.70;;;1.10;;
3543;SDS011;1786;52.870;9.578;2022-10-16T08:51:07;2.40;;;1.20;;
3543;SDS011;1786;52.870;9.578;2022-10-16T08:53:43;2.50;;;1.00;;
3543;SDS011;1786;52.870;9.578;2022-10-16T08:56:13;1.93;;;1.33;;
3543;SDS011;1786;52.870;9.578;2022-10-16T08:58:39;1.10;;;1.00;;
3543;SDS011;1786;52.870;9.578;2022-10-16T09:01:11;3.00;;;1.33;;
3543;SDS011;1786;52.870;9.578;2022-10-16T09:06:17;1.40;;;1.30;;
3543;SDS011;1786;52.870;9.578;2022-10-16T09:17:27;1.33;;;1.10;;
3543;SDS011;1786;52.870;9.578;2022-10-16T09:20:13;1.20;;;1.00;;
3543;SDS011;1786;52.870;9.578;2022-10-16T09:22:41;1.33;;;0.83;;
3543;SDS011;1786;52.870;9.578;2022-10-16T09:25:12;6.03;;;1.10;;
3543;SDS011;1786;52.870;9.578;2022-10-16T09:27:44;3.23;;;1.17;;
3543;SDS011;1786;52.870;9.578;2022-10-16T09:30:15;4.40;;;1.67;;
3543;SDS011;1786;52.870;9.578;2022-10-16T09:32:44;1.60;;;1.13;;
3543;SDS011;1786;52.870;9.578;2022-10-16T09:36:00;3.97;;;1.10;;
3543;SDS011;1786;52.870;9.578;2022-10-16T09:38:06;1.57;;;1.20;;
3543;SDS011;1786;52.870;9.578;2022-10-16T09:40:35;4.20;;;1.00;;
3543;SDS011;1786;52.870;9.578;2022-10-16T09:43:08;4.10;;;1.17;;
3543;SDS011;1786;52.870;9.578;2022-10-16T09:45:59;2.23;;;1.00;;
3543;SDS011;1786;52.870;9.578;2022-10-16T09:48:36;1.93;;;1.37;;
3543;SDS011;1786;52.870;9.578;2022-10-16T09:51:06;2.13;;;1.40;;
3543;SDS011;1786;52.870;9.578;2022-10-16T09:54:02;3.90;;;1.10;;
3543;SDS011;1786;52.870;9.578;2022-10-16T09:56:40;2.40;;;0.90;;
3543;SDS011;1786;52.870;9.578;2022-10-16T09:59:11;7.20;;;1.20;;
3543;SDS011;1786;52.870;9.578;2022-10-16T10:01:41;2.60;;;0.80;;
3543;SDS011;1786;52.870;9.578;2022-10-16T10:04:12;7.33;;;1.10;;
3543;SDS011;1786;52.870;9.578;2022-10-16T10:06:46;2.37;;;1.00;;
3543;SDS011;1786;52.870;9.578;2022-10-16T10:09:16;1.00;;;0.90;;
3543;SDS011;1786;52.870;9.578;2022-10-16T10:14:22;2.20;;;1.00;;
3543;SDS011;1786;52.870;9.578;2022-10-16T10:17:02;1.80;;;1.00;;
3543;SDS011;1786;52.870;9.578;2022-10-16T10:19:37;3.50;;;1.20;;
3543;SDS011;1786;52.870;9.578;2022-10-16T10:27:48;1.87;;;1.17;;
3543;SDS011;1786;52.870;9.578;2022-10-16T10:30:49;2.70;;;1.03;;
3543;SDS011;1786;52.870;9.578;2022-10-16T10:34:42;3.50;;;1.50;;
3543;SDS011;1786;52.870;9.578;2022-10-16T10:37:01;3.80;;;1.10;;
3543;SDS011;1786;52.870;9.578;2022-10-16T10:39:38;9.50;;;1.30;;
3543;SDS011;1786;52.870;9.578;2022-10-16T10:47:40;3.63;;;0.90;;
3543;SDS011;1786;52.870;9.578;2022-10-16T11:01:37;2.90;;;1.17;;
3543;SDS011;1786;52.870;9.578;2022-10-16T11:04:18;1.93;;;1.40;;
3543;SDS011;1786;52.870;9.578;2022-10-16T11:07:25;3.97;;;1.23;;
3543;SDS011;1786;52.870;9.578;2022-10-16T11:09:56;2.83;;;1.23;;
3543;SDS011;1786;52.870;9.578;2022-10-16T11:12:36;2.37;;;1.17;;
3543;SDS011;1786;52.870;9.578;2022-10-16T11:17:53;2.40;;;1.37;;
3543;SDS011;1786;52.870;9.578;2022-10-16T11:20:32;4.67;;;1.30;;
3543;SDS011;1786;52.870;9.578;2022-10-16T11:23:09;5.03;;;1.40;;
3543;SDS011;1786;52.870;9.578;2022-10-16T11:25:42;3.27;;;1.23;;
3543;SDS011;1786;52.870;9.578;2022-10-16T11:28:16;2.57;;;1.40;;
3543;SDS011;1786;52.870;9.578;2022-10-16T11:31:00;1.57;;;1.33;;
3543;SDS011;1786;52.870;9.578;2022-10-16T11:33:39;2.97;;;1.20;;
3543;SDS011;1786;52.870;9.578;2022-10-16T11:36:18;4.00;;;1.50;;
3543;SDS011;1786;52.870;9.578;2022-10-16T11:41:45;1.57;;;1.03;;
3543;SDS011;1786;52.870;9.578;2022-10-16T11:44:19;1.60;;;1.50;;
3543;SDS011;1786;52.870;9.578;2022-10-16T11:47:11;4.47;;;1.30;;
3543;SDS011;1786;52.870;9.578;2022-10-16T11:52:57;4.17;;;1.53;;
3543;SDS011;1786;52.870;9.578;2022-10-16T11:55:40;3.63;;;1.27;;
3543;SDS011;1786;52.870;9.578;2022-10-16T11:58:15;3.77;;;1.30;;
3543;SDS011;1786;52.870;9.578;2022-10-16T12:03:31;2.23;;;1.50;;
3543;SDS011;1786;52.870;9.578;2022-10-16T12:08:51;3.80;;;1.00;;
3543;SDS011;1786;52.870;9.578;2022-10-16T12:11:23;1.87;;;1.23;;
3543;SDS011;1786;52.870;9.578;2022-10-16T12:19:23;29.43;;;1.93;;
3543;SDS011;1786;52.870;9.578;2022-10-16T12:21:52;6.43;;;1.07;;
3543;SDS011;1786;52.870;9.578;2022-10-16T12:24:33;6.27;;;1.20;;
3543;SDS011;1786;52.870;9.578;2022-10-16T12:27:04;1.87;;;1.07;;
3543;SDS011;1786;52.870;9.578;2022-10-16T12:29:34;3.43;;;1.00;;
3543;SDS011;1786;52.870;9.578;2022-10-16T12:32:04;2.00;;;1.00;;
3543;SDS011;1786;52.870;9.578;2022-10-16T12:35:05;2.60;;;1.10;;
3543;SDS011;1786;52.870;9.578;2022-10-16T12:37:44;1.93;;;1.10;;
3543;SDS011;1786;52.870;9.578;2022-10-16T12:42:53;3.40;;;1.27;;
3543;SDS011;1786;52.870;9.578;2022-10-16T12:45:33;3.97;;;1.10;;
3543;SDS011;1786;52.870;9.578;2022-10-16T12:48:01;1.23;;;1.00;;
3543;SDS011;1786;52.870;9.578;2022-10-16T12:50:35;7.47;;;1.40;;
3543;SDS011;1786;52.870;9.578;2022-10-16T12:53:17;2.30;;;0.93;;
3543;SDS011;1786;52.870;9.578;2022-10-16T12:55:52;3.10;;;0.97;;
3543;SDS011;1786;52.870;9.578;2022-10-16T13:04:04;2.80;;;0.97;;
3543;SDS011;1786;52.870;9.578;2022-10-16T13:06:45;5.47;;;1.20;;
3543;SDS011;1786;52.870;9.578;2022-10-16T13:18:10;1.70;;;1.10;;
3543;SDS011;1786;52.870;9.578;2022-10-16T13:20:52;9.00;;;1.00;;
3543;SDS011;1786;52.870;9.578;2022-10-16T13:23:22;2.83;;;0.90;;
3543;SDS011;1786;52.870;9.578;2022-10-16T13:28:39;5.13;;;1.00;;
3543;SDS011;1786;52.870;9.578;2022-10-16T13:31:09;2.80;;;1.20;;
3543;SDS011;1786;52.870;9.578;2022-10-16T13:33:53;0.87;;;0.87;;
3543;SDS011;1786;52.870;9.578;2022-10-16T13:36:26;2.80;;;0.93;;
3543;SDS011;1786;52.870;9.578;2022-10-16T13:38:59;6.40;;;1.93;;
3543;SDS011;1786;52.870;9.578;2022-10-16T13:41:32;5.20;;;1.30;;
3543;SDS011;1786;52.870;9.578;2022-10-16T13:43:59;2.40;;;1.13;;
3543;SDS011;1786;52.870;9.578;2022-10-16T13:46:26;1.60;;;0.87;;
3543;SDS011;1786;52.870;9.578;2022-10-16T13:49:03;3.27;;;1.50;;
3543;SDS011;1786;52.870;9.578;2022-10-16T13:51:31;3.40;;;1.00;;
3543;SDS011;1786;52.870;9.578;2022-10-16T13:53:59;9.57;;;1.00;;
3543;SDS011;1786;52.870;9.578;2022-10-16T13:56:26;3.50;;;1.30;;
3543;SDS011;1786;52.870;9.578;2022-10-16T13:59:03;4.50;;;1.00;;
3543;SDS011;1786;52.870;9.578;2022-10-16T14:01:32;3.33;;;1.13;;
3543;SDS011;1786;52.870;9.578;2022-10-16T14:04:07;3.70;;;1.03;;
3543;SDS011;1786;52.870;9.578;2022-10-16T14:06:40;3.70;;;1.00;;
3543;SDS011;1786;52.870;9.578;2022-10-16T14:09:09;2.97;;;0.90;;
3543;SDS011;1786;52.870;9.578;2022-10-16T14:11:51;1.30;;;0.80;;
3543;SDS011;1786;52.870;9.578;2022-10-16T14:14:20;2.83;;;0.87;;
3543;SDS011;1786;52.870;9.578;2022-10-16T14:16:46;6.03;;;1.30;;
3543;SDS011;1786;52.870;9.578;2022-10-16T14:19:24;2.37;;;0.90;;
3543;SDS011;1786;52.870;9.578;2022-10-16T14:21:53;3.77;;;1.20;;
3543;SDS011;1786;52.870;9.578;2022-10-16T14:24:31;5.90;;;1.23;;
3543;SDS011;1786;52.870;9.578;2022-10-16T14:27:00;3.90;;;1.00;;
3543;SDS011;1786;52.870;9.578;2022-10-16T14:29:28;3.63;;;1.10;;
3543;SDS011;1786;52.870;9.578;2022-10-16T14:32:01;9.60;;;1.27;;
3543;SDS011;1786;52.870;9.578;2022-10-16T14:34:33;2.93;;;1.17;;
3543;SDS011;1786;52.870;9.578;2022-10-16T14:37:08;3.50;;;1.60;;
3543;SDS011;1786;52.870;9.578;2022-10-16T14:39:53;2.67;;;1.13;;
3543;SDS011;1786;52.870;9.578;2022-10-16T14:42:21;2.70;;;0.90;;
3543;SDS011;1786;52.870;9.578;2022-10-16T14:44:52;1.83;;;1.10;;
3543;SDS011;1786;52.870;9.578;2022-10-16T14:47:22;6.10;;;1.43;;
3543;SDS011;1786;52.870;9.578;2022-10-16T14:49:53;4.97;;;1.10;;
3543;SDS011;1786;52.870;9.578;2022-10-16T14:52:22;6.60;;;1.10;;
3543;SDS011;1786;52.870;9.578;2022-10-16T14:54:49;3.73;;;0.87;;
3543;SDS011;1786;52.870;9.578;2022-10-16T14:57:17;2.07;;;0.90;;
3543;SDS011;1786;52.870;9.578;2022-10-16T14:59:45;3.23;;;0.90;;
3543;SDS011;1786;52.870;9.578;2022-10-16T15:04:53;3.33;;;1.17;;
3543;SDS011;1786;52.870;9.578;2022-10-16T15:07:20;9.30;;;1.17;;
3543;SDS011;1786;52.870;9.578;2022-10-16T15:09:47;3.80;;;1.00;;
3543;SDS011;1786;52.870;9.578;2022-10-16T15:12:15;9.30;;;1.87;;
3543;SDS011;1786;52.870;9.578;2022-10-16T15:14:43;1.43;;;1.10;;
3543;SDS011;1786;52.870;9.578;2022-10-16T15:17:10;5.47;;;1.13;;
3543;SDS011;1786;52.870;9.578;2022-10-16T15:19:37;4.60;;;1.13;;
3543;SDS011;1786;52.870;9.578;2022-10-16T15:22:04;2.30;;;1.00;;
3543;SDS011;1786;52.870;9.578;2022-10-16T15:24:31;1.93;;;0.90;;
3543;SDS011;1786;52.870;9.578;2022-10-16T15:26:57;2.20;;;0.97;;
3543;SDS011;1786;52.870;9.578;2022-10-16T15:29:24;4.83;;;1.20;;
3543;SDS011;1786;52.870;9.578;2022-10-16T15:31:50;4.10;;;1.17;;
3543;SDS011;1786;52.870;9.578;2022-10-16T15:34:17;2.33;;;1.50;;
3543;SDS011;1786;52.870;9.578;2022-10-16T15:36:45;4.33;;;1.47;;
3543;SDS011;1786;52.870;9.578;2022-10-16T15:39:13;6.13;;;1.53;;
3543;SDS011;1786;52.870;9.578;2022-10-16T15:41:42;4.63;;;1.30;;
3543;SDS011;1786;52.870;9.578;2022-10-16T15:44:10;2.40;;;1.20;;
3543;SDS011;1786;52.870;9.578;2022-10-16T15:46:37;4.23;;;1.00;;
3543;SDS011;1786;52.870;9.578;2022-10-16T15:49:04;5.40;;;1.27;;
3543;SDS011;1786;52.870;9.578;2022-10-16T15:51:30;5.03;;;1.43;;
3543;SDS011;1786;52.870;9.578;2022-10-16T15:53:59;3.30;;;1.10;;
3543;SDS011;1786;52.870;9.578;2022-10-16T15:56:28;2.90;;;1.20;;
3543;SDS011;1786;52.870;9.578;2022-10-16T15:58:54;5.37;;;1.27;;
3543;SDS011;1786;52.870;9.578;2022-10-16T16:01:21;2.10;;;1.40;;
3543;SDS011;1786;52.870;9.578;2022-10-16T16:03:48;3.53;;;1.20;;
3543;SDS011;1786;52.870;9.578;2022-10-16T16:06:21;4.13;;;1.60;;
3543;SDS011;1786;52.870;9.578;2022-10-16T16:08:50;7.60;;;1.63;;
3543;SDS011;1786;52.870;9.578;2022-10-16T16:11:18;1.53;;;1.43;;
3543;SDS011;1786;52.870;9.578;2022-10-16T16:13:45;8.77;;;2.40;;
3543;SDS011;1786;52.870;9.578;2022-10-16T16:16:13;4.70;;;2.47;;
3543;SDS011;1786;52.870;9.578;2022-10-16T16:18:42;5.77;;;2.13;;
3543;SDS011;1786;52.870;9.578;2022-10-16T16:21:10;3.17;;;1.90;;
3543;SDS011;1786;52.870;9.578;2022-10-16T16:23:37;5.57;;;1.57;;
3543;SDS011;1786;52.870;9.578;2022-10-16T16:26:14;5.27;;;1.40;;
3543;SDS011;1786;52.870;9.578;2022-10-16T16:28:50;8.27;;;1.70;;
3543;SDS011;1786;52.870;9.578;2022-10-16T16:31:16;8.63;;;3.37;;
3543;SDS011;1786;52.870;9.578;2022-10-16T16:33:43;3.67;;;3.10;;
3543;SDS011;1786;52.870;9.578;2022-10-16T16:36:10;6.30;;;2.63;;
3543;SDS011;1786;52.870;9.578;2022-10-16T16:38:41;4.03;;;2.50;;
3543;SDS011;1786;52.870;9.578;2022-10-16T16:41:12;5.67;;;2.43;;
3543;SDS011;1786;52.870;9.578;2022-10-16T16:43:43;6.03;;;2.03;;
3543;SDS011;1786;52.870;9.578;2022-10-16T16:46:11;15.93;;;2.87;;
3543;SDS011;1786;52.870;9.578;2022-10-16T16:48:38;8.83;;;2.20;;
3543;SDS011;1786;52.870;9.578;2022-10-16T16:51:06;3.53;;;2.10;;
3543;SDS011;1786;52.870;9.578;2022-10-16T16:53:35;6.10;;;3.57;;
3543;SDS011;1786;52.870;9.578;2022-10-16T16:56:03;9.20;;;6.47;;
3543;SDS011;1786;52.870;9.578;2022-10-16T16:58:31;13.10;;;9.17;;
3543;SDS011;1786;52.870;9.578;2022-10-16T17:00:59;17.97;;;11.20;;
3543;SDS011;1786;52.870;9.578;2022-10-16T17:03:45;14.57;;;10.40;;
3543;SDS011;1786;52.870;9.578;2022-10-16T17:06:12;8.00;;;7.17;;
3543;SDS011;1786;52.870;9.578;2022-10-16T17:08:40;13.77;;;9.10;;
3543;SDS011;1786;52.870;9.578;2022-10-16T17:11:12;12.43;;;8.80;;
3543;SDS011;1786;52.870;9.578;2022-10-16T17:13:40;8.50;;;5.10;;
3543;SDS011;1786;52.870;9.578;2022-10-16T17:16:07;9.07;;;4.57;;
3543;SDS011;1786;52.870;9.578;2022-10-16T17:18:35;4.83;;;3.57;;